createdAt,value
2019-03-20T00:00:41.808Z,75.26
2019-03-20T00:01:44.025Z,74.63
2019-03-20T00:02:41.752Z,73.98
2019-03-20T00:03:41.743Z,72.84
2019-03-20T00:04:49.730Z,73.46
2019-03-20T00:05:42.745Z,72.94
2019-03-20T00:06:41.707Z,72.63
2019-03-20T00:07:41.719Z,71.80
2019-03-20T00:08:41.720Z,72.49
2019-03-20T00:09:41.680Z,73.88
2019-03-20T00:10:41.706Z,74.29
2019-03-20T00:11:41.667Z,74.40
2019-03-20T00:12:41.657Z,74.19
2019-03-20T00:13:41.628Z,74.60
2019-03-20T00:14:41.623Z,74.91
2019-03-20T00:15:41.653Z,75.26
2019-03-20T00:16:41.611Z,75.02
2019-03-20T00:17:41.599Z,75.05
2019-03-20T00:18:41.584Z,75.26
2019-03-20T00:19:41.569Z,74.84
2019-03-20T00:20:41.599Z,73.91
2019-03-20T00:21:41.556Z,73.80
2019-03-20T00:22:43.229Z,74.01
2019-03-20T00:23:41.544Z,73.70
2019-03-20T00:24:41.514Z,73.98
2019-03-20T00:25:41.537Z,73.08
2019-03-20T00:26:41.498Z,72.87
2019-03-20T00:27:41.504Z,73.08
2019-03-20T00:28:41.472Z,72.87
2019-03-20T00:29:41.468Z,72.66
2019-03-20T00:30:41.458Z,72.56
2019-03-20T00:31:41.435Z,72.77
2019-03-20T00:32:41.430Z,73.77
2019-03-20T00:33:41.413Z,73.36
2019-03-20T00:34:41.406Z,72.74
2019-03-20T00:35:41.424Z,72.84
2019-03-20T00:36:41.388Z,72.11
2019-03-20T00:37:41.373Z,71.52
2019-03-20T00:38:41.364Z,71.49
2019-03-20T00:39:41.356Z,70.97
2019-03-20T00:40:41.351Z,70.56
2019-03-20T00:41:41.347Z,70.97
2019-03-20T00:42:41.340Z,70.66
2019-03-20T00:43:41.317Z,70.56
2019-03-20T00:44:41.302Z,70.76
2019-03-20T00:45:41.284Z,71.08
2019-03-20T00:46:41.291Z,71.18
2019-03-20T00:47:41.261Z,70.56
2019-03-20T00:48:41.257Z,70.45
2019-03-20T00:49:41.249Z,70.00
2019-03-20T00:50:41.246Z,70.00
2019-03-20T00:51:41.237Z,69.79
2019-03-20T00:52:41.211Z,69.79
2019-03-20T00:53:41.217Z,69.73
2019-03-20T00:54:41.196Z,69.69
2019-03-20T00:55:41.181Z,69.59
2019-03-20T00:56:41.185Z,69.27
2019-03-20T00:57:41.163Z,69.38
2019-03-20T00:58:41.149Z,69.59
2019-03-20T00:59:41.132Z,69.48
2019-03-20T01:00:41.132Z,69.38
2019-03-20T01:01:41.134Z,69.59
2019-03-20T01:02:41.103Z,70.00
2019-03-20T01:03:41.109Z,71.14
2019-03-20T01:04:41.083Z,71.35
2019-03-20T01:05:41.062Z,71.25
2019-03-20T01:06:41.068Z,71.49
2019-03-20T01:07:41.050Z,71.39
2019-03-20T01:08:41.048Z,70.66
2019-03-20T01:09:41.017Z,70.04
2019-03-20T01:10:41.014Z,69.83
2019-03-20T01:11:41.035Z,69.93
2019-03-20T01:12:40.994Z,69.73
2019-03-20T01:13:40.987Z,70.25
2019-03-20T01:14:40.986Z,70.76
2019-03-20T01:15:40.963Z,70.97
2019-03-20T01:16:40.949Z,70.79
2019-03-20T01:17:40.962Z,69.93
2019-03-20T01:18:40.930Z,70.25
2019-03-20T01:19:40.921Z,69.73
2019-03-20T01:20:40.913Z,72.22
2019-03-20T01:21:40.905Z,72.53
2019-03-20T01:22:40.894Z,72.53
2019-03-20T01:23:40.877Z,72.94
2019-03-20T01:24:40.858Z,73.80
2019-03-20T01:25:40.859Z,73.80
2019-03-20T01:26:40.838Z,72.87
2019-03-20T01:27:40.847Z,74.01
2019-03-20T01:28:40.819Z,73.80
2019-03-20T01:29:40.812Z,73.91
2019-03-20T01:30:40.797Z,74.26
2019-03-20T01:31:40.783Z,74.36
2019-03-20T01:32:40.789Z,74.98
2019-03-20T01:33:40.767Z,74.36
2019-03-20T01:34:40.766Z,74.88
2019-03-20T01:35:40.752Z,74.36
2019-03-20T01:36:40.732Z,74.08
2019-03-20T01:37:40.731Z,73.77
2019-03-20T01:38:40.704Z,73.97
2019-03-20T01:39:40.702Z,73.04
2019-03-20T01:40:41.032Z,73.87
2019-03-20T01:41:40.723Z,74.08
2019-03-20T01:42:40.682Z,73.14
2019-03-20T01:43:40.653Z,72.83
2019-03-20T01:44:40.647Z,73.77
2019-03-20T01:45:40.634Z,73.60
2019-03-20T01:46:40.639Z,73.28
2019-03-20T01:47:40.622Z,73.70
2019-03-20T01:48:40.592Z,73.80
2019-03-20T01:49:40.583Z,74.43
2019-03-20T01:50:40.583Z,74.11
2019-03-20T01:51:40.567Z,74.32
2019-03-20T01:52:40.576Z,74.46
2019-03-20T01:53:40.560Z,74.32
2019-03-20T01:54:40.551Z,74.98
2019-03-20T01:55:40.527Z,74.63
2019-03-20T01:56:40.513Z,75.50
2019-03-20T01:57:40.505Z,75.29
2019-03-20T01:58:40.521Z,75.26
2019-03-20T01:59:40.489Z,75.50
2019-03-20T02:00:40.464Z,75.71
2019-03-20T02:01:40.459Z,75.50
2019-03-20T02:02:40.453Z,75.71
2019-03-20T02:03:40.963Z,76.75
2019-03-20T02:04:40.418Z,76.33
2019-03-20T02:05:40.420Z,76.64
2019-03-20T02:06:40.401Z,76.12
2019-03-20T02:07:40.407Z,76.54
2019-03-20T02:08:40.403Z,76.12
2019-03-20T02:09:40.388Z,76.12
2019-03-20T02:10:40.363Z,75.19
2019-03-20T02:11:40.355Z,75.29
2019-03-20T02:12:40.345Z,74.57
2019-03-20T02:13:40.364Z,74.77
2019-03-20T02:14:40.321Z,74.11
2019-03-20T02:15:40.329Z,73.91
2019-03-20T02:16:40.305Z,73.70
2019-03-20T02:17:40.297Z,72.66
2019-03-20T02:18:40.305Z,72.76
2019-03-20T02:19:40.286Z,72.45
2019-03-20T02:20:40.269Z,72.94
2019-03-20T02:21:40.253Z,72.63
2019-03-20T02:22:40.238Z,72.73
2019-03-20T02:23:40.252Z,72.83
2019-03-20T02:24:40.204Z,72.42
2019-03-20T02:25:40.212Z,72.55
2019-03-20T02:26:40.201Z,73.66
2019-03-20T02:27:40.213Z,72.83
2019-03-20T02:28:40.200Z,73.07
2019-03-20T02:29:40.155Z,72.83
2019-03-20T02:30:40.157Z,73.87
2019-03-20T02:31:40.140Z,72.73
2019-03-20T02:32:40.137Z,72.94
2019-03-20T02:33:40.165Z,73.56
2019-03-20T02:34:40.099Z,73.77
2019-03-20T02:35:51.254Z,73.87
2019-03-20T02:36:41.079Z,73.70
2019-03-20T02:37:40.077Z,73.87
2019-03-20T02:38:40.075Z,74.22
2019-03-20T02:39:40.059Z,73.70
2019-03-20T02:40:40.042Z,72.66
2019-03-20T02:41:40.024Z,72.97
2019-03-20T02:42:40.016Z,72.97
2019-03-20T02:43:40.003Z,73.80
2019-03-20T02:44:40.025Z,73.28
2019-03-20T02:45:39.980Z,73.91
2019-03-20T02:46:39.983Z,73.80
2019-03-20T02:47:39.957Z,72.97
2019-03-20T02:48:39.966Z,73.07
2019-03-20T02:49:39.960Z,72.86
2019-03-20T02:50:39.931Z,74.01
2019-03-20T02:51:39.930Z,72.97
2019-03-20T02:52:39.900Z,73.80
2019-03-20T02:53:39.892Z,73.60
2019-03-20T02:54:39.905Z,74.32
2019-03-20T02:55:39.877Z,73.94
2019-03-20T02:56:39.872Z,73.21
2019-03-20T02:57:39.847Z,72.86
2019-03-20T02:58:39.835Z,72.66
2019-03-20T02:59:39.837Z,72.45
2019-03-20T03:00:39.822Z,72.45
2019-03-20T03:01:39.815Z,72.86
2019-03-20T03:02:39.798Z,72.14
2019-03-20T03:03:39.795Z,71.93
2019-03-20T03:04:39.780Z,72.21
2019-03-20T03:05:39.757Z,72.00
2019-03-20T03:06:39.775Z,72.00
2019-03-20T03:07:39.766Z,72.03
2019-03-20T03:08:39.748Z,71.38
2019-03-20T03:09:39.734Z,71.59
2019-03-20T03:10:39.743Z,71.90
2019-03-20T03:11:39.710Z,72.11
2019-03-20T03:12:39.692Z,71.69
2019-03-20T03:13:39.691Z,71.48
2019-03-20T03:14:39.704Z,71.28
2019-03-20T03:15:39.656Z,71.17
2019-03-20T03:16:39.639Z,71.38
2019-03-20T03:17:39.625Z,71.28
2019-03-20T03:18:39.618Z,71.59
2019-03-20T03:19:40.149Z,71.28
2019-03-20T03:20:39.614Z,71.48
2019-03-20T03:21:39.584Z,70.97
2019-03-20T03:22:39.570Z,71.28
2019-03-20T03:23:39.568Z,71.07
2019-03-20T03:24:39.556Z,71.14
2019-03-20T03:25:39.565Z,71.28
2019-03-20T03:26:39.549Z,71.48
2019-03-20T03:27:39.535Z,71.48
2019-03-20T03:28:39.514Z,71.48
2019-03-20T03:29:39.486Z,71.48
2019-03-20T03:30:39.509Z,71.90
2019-03-20T03:31:39.518Z,72.00
2019-03-20T03:32:39.482Z,72.00
2019-03-20T03:33:39.510Z,71.90
2019-03-20T03:34:39.475Z,71.90
2019-03-20T03:35:39.460Z,71.90
2019-03-20T03:36:39.417Z,72.00
2019-03-20T03:37:39.434Z,71.90
2019-03-20T03:38:39.411Z,71.90
2019-03-20T03:39:39.396Z,72.52
2019-03-20T03:40:39.392Z,72.45
2019-03-20T03:41:39.361Z,72.14
2019-03-20T03:42:39.358Z,72.14
2019-03-20T03:43:39.345Z,72.24
2019-03-20T03:44:39.330Z,72.97
2019-03-20T03:45:39.355Z,72.03
2019-03-20T03:46:39.328Z,72.86
2019-03-20T03:47:39.303Z,72.86
2019-03-20T03:48:39.283Z,72.55
2019-03-20T03:49:39.283Z,72.66
2019-03-20T03:50:39.301Z,72.66
2019-03-20T03:51:39.255Z,72.86
2019-03-20T03:52:39.263Z,72.55
2019-03-20T03:53:39.247Z,73.39
2019-03-20T03:54:39.219Z,73.07
2019-03-20T03:55:39.241Z,73.28
2019-03-20T03:56:39.201Z,73.73
2019-03-20T03:57:39.193Z,74.04
2019-03-20T03:58:39.184Z,73.11
2019-03-20T03:59:39.188Z,74.15
2019-03-20T04:00:39.173Z,74.04
2019-03-20T04:01:39.155Z,73.52
2019-03-20T04:02:39.138Z,73.73
2019-03-20T04:03:39.137Z,73.94
2019-03-20T04:04:39.127Z,74.35
2019-03-20T04:05:39.099Z,74.57
2019-03-20T04:06:39.113Z,74.04
2019-03-20T04:07:39.095Z,73.94
2019-03-20T04:08:39.110Z,74.04
2019-03-20T04:09:39.061Z,74.49
2019-03-20T04:10:39.052Z,74.57
2019-03-20T04:11:39.064Z,74.57
2019-03-20T04:12:39.038Z,74.77
2019-03-20T04:13:39.027Z,74.88
2019-03-20T04:14:39.053Z,75.09
2019-03-20T04:15:39.034Z,75.32
2019-03-20T04:16:39.005Z,75.74
2019-03-20T04:17:39.002Z,75.95
2019-03-20T04:18:38.970Z,76.47
2019-03-20T04:19:38.967Z,76.16
2019-03-20T04:20:38.947Z,76.26
2019-03-20T04:21:38.952Z,76.89
2019-03-20T04:22:38.915Z,76.68
2019-03-20T04:23:38.905Z,75.95
2019-03-20T04:24:38.896Z,76.78
2019-03-20T04:25:38.895Z,76.78
2019-03-20T04:26:38.891Z,76.26
2019-03-20T04:27:38.904Z,76.78
2019-03-20T04:28:38.871Z,76.16
2019-03-20T04:29:38.850Z,76.37
2019-03-20T04:30:38.835Z,76.57
2019-03-20T04:31:38.884Z,76.47
2019-03-20T04:32:38.816Z,75.85
2019-03-20T04:33:38.805Z,76.68
2019-03-20T04:34:38.790Z,76.57
2019-03-20T04:35:38.779Z,76.68
2019-03-20T04:36:47.286Z,76.92
2019-03-20T04:37:39.775Z,77.51
2019-03-20T04:38:38.774Z,77.65
2019-03-20T04:39:38.738Z,77.75
2019-03-20T04:40:38.730Z,77.65
2019-03-20T04:41:38.729Z,77.44
2019-03-20T04:42:38.712Z,77.55
2019-03-20T04:43:38.696Z,77.55
2019-03-20T04:44:38.675Z,78.28
2019-03-20T04:45:38.690Z,78.28
2019-03-20T04:46:38.652Z,78.28
2019-03-20T04:47:38.669Z,78.38
2019-03-20T04:48:38.641Z,78.28
2019-03-20T04:49:38.625Z,78.38
2019-03-20T04:50:38.618Z,78.38
2019-03-20T04:51:38.603Z,78.69
2019-03-20T04:52:38.606Z,78.69
2019-03-20T04:53:38.596Z,78.90
2019-03-20T04:54:38.582Z,78.90
2019-03-20T04:55:38.568Z,79.32
2019-03-20T04:56:38.560Z,79.11
2019-03-20T04:57:38.559Z,79.11
2019-03-20T04:58:38.535Z,78.49
2019-03-20T04:59:38.534Z,78.38
2019-03-20T05:00:38.523Z,77.96
2019-03-20T05:01:38.503Z,78.28
2019-03-20T05:02:38.490Z,78.17
2019-03-20T05:03:38.477Z,78.31
2019-03-20T05:04:38.470Z,78.38
2019-03-20T05:05:38.458Z,78.63
2019-03-20T05:06:38.451Z,78.49
2019-03-20T05:07:38.452Z,78.83
2019-03-20T05:08:38.418Z,79.00
2019-03-20T05:09:38.422Z,78.73
2019-03-20T05:10:38.425Z,78.83
2019-03-20T05:11:38.403Z,79.35
2019-03-20T05:12:38.398Z,79.14
2019-03-20T05:13:38.369Z,79.21
2019-03-20T05:14:38.369Z,79.14
2019-03-20T05:15:38.358Z,79.46
2019-03-20T05:16:38.340Z,79.56
2019-03-20T05:17:38.363Z,79.87
2019-03-20T05:18:38.331Z,79.98
2019-03-20T05:19:38.314Z,80.08
2019-03-20T05:20:38.297Z,79.77
2019-03-20T05:21:38.276Z,79.87
2019-03-20T05:22:38.266Z,80.19
2019-03-20T05:23:38.278Z,80.08
2019-03-20T05:24:38.245Z,79.87
2019-03-20T05:25:38.249Z,79.25
2019-03-20T05:26:38.238Z,78.73
2019-03-20T05:27:38.216Z,78.52
2019-03-20T05:28:38.216Z,78.20
2019-03-20T05:29:38.214Z,78.63
2019-03-20T05:30:38.191Z,78.52
2019-03-20T05:31:38.188Z,78.83
2019-03-20T05:32:38.187Z,78.63
2019-03-20T05:33:38.193Z,78.52
2019-03-20T05:34:38.155Z,78.52
2019-03-20T05:35:38.129Z,78.38
2019-03-20T05:36:38.141Z,78.49
2019-03-20T05:37:38.110Z,78.49
2019-03-20T05:38:38.130Z,78.38
2019-03-20T05:39:38.091Z,78.17
2019-03-20T05:40:38.093Z,77.96
2019-03-20T05:41:38.061Z,77.55
2019-03-20T05:42:38.066Z,77.96
2019-03-20T05:43:38.052Z,77.65
2019-03-20T05:44:38.033Z,77.96
2019-03-20T05:45:38.023Z,77.75
2019-03-20T05:46:38.026Z,77.86
2019-03-20T05:47:37.999Z,77.65
2019-03-20T05:48:38.009Z,77.65
2019-03-20T05:49:37.982Z,77.44
2019-03-20T05:50:37.966Z,77.40
2019-03-20T05:51:37.954Z,77.34
2019-03-20T05:52:37.952Z,77.30
2019-03-20T05:53:37.964Z,76.99
2019-03-20T05:54:37.935Z,76.99
2019-03-20T05:55:37.919Z,77.30
2019-03-20T05:56:37.909Z,77.37
2019-03-20T05:57:37.898Z,77.09
2019-03-20T05:58:37.888Z,77.58
2019-03-20T05:59:37.909Z,77.40
2019-03-20T06:00:37.864Z,76.85
2019-03-20T06:01:37.846Z,76.75
2019-03-20T06:02:37.836Z,76.43
2019-03-20T06:03:37.822Z,76.75
2019-03-20T06:04:37.833Z,76.64
2019-03-20T06:05:37.816Z,76.33
2019-03-20T06:06:37.812Z,76.33
2019-03-20T06:07:37.804Z,76.23
2019-03-20T06:08:37.795Z,75.67
2019-03-20T06:09:37.789Z,75.36
2019-03-20T06:10:37.765Z,75.88
2019-03-20T06:11:37.746Z,75.98
2019-03-20T06:12:37.747Z,74.84
2019-03-20T06:13:37.768Z,74.53
2019-03-20T06:14:37.734Z,74.53
2019-03-20T06:15:37.798Z,74.80
2019-03-20T06:16:37.704Z,74.70
2019-03-20T06:17:37.700Z,74.60
2019-03-20T06:18:37.661Z,74.39
2019-03-20T06:19:37.671Z,74.39
2019-03-20T06:20:37.649Z,74.08
2019-03-20T06:21:37.633Z,73.97
2019-03-20T06:22:37.616Z,73.63
2019-03-20T06:23:37.620Z,73.53
2019-03-20T06:24:37.616Z,72.90
2019-03-20T06:25:37.605Z,73.11
2019-03-20T06:26:37.578Z,73.11
2019-03-20T06:27:37.574Z,73.84
2019-03-20T06:28:37.564Z,73.74
2019-03-20T06:29:37.578Z,73.53
2019-03-20T06:30:37.542Z,72.49
2019-03-20T06:31:37.545Z,72.87
2019-03-20T06:32:37.520Z,72.77
2019-03-20T06:33:37.511Z,72.87
2019-03-20T06:34:37.490Z,72.97
2019-03-20T06:35:37.532Z,72.45
2019-03-20T06:36:37.478Z,72.56
2019-03-20T06:37:37.552Z,72.66
2019-03-20T06:38:37.523Z,72.56
2019-03-20T06:39:37.443Z,72.22
2019-03-20T06:40:37.434Z,72.14
2019-03-20T06:41:37.413Z,72.01
2019-03-20T06:42:37.409Z,72.01
2019-03-20T06:43:37.399Z,72.11
2019-03-20T06:44:37.416Z,72.01
2019-03-20T06:45:37.383Z,71.70
2019-03-20T06:46:37.348Z,71.28
2019-03-20T06:47:37.356Z,71.08
2019-03-20T06:48:37.348Z,71.45
2019-03-20T06:49:37.328Z,70.94
2019-03-20T06:50:37.329Z,70.52
2019-03-20T06:51:37.319Z,70.52
2019-03-20T06:52:37.313Z,70.73
2019-03-20T06:53:37.294Z,70.52
2019-03-20T06:54:37.284Z,70.21
2019-03-20T06:55:37.291Z,70.21
2019-03-20T06:56:37.257Z,69.66
2019-03-20T06:57:37.240Z,69.79
2019-03-20T06:58:37.232Z,70.07
2019-03-20T06:59:37.217Z,69.76
2019-03-20T07:00:37.256Z,69.45
2019-03-20T07:01:37.193Z,69.56
2019-03-20T07:02:37.192Z,69.56
2019-03-20T07:03:37.199Z,69.53
2019-03-20T07:04:37.162Z,69.42
2019-03-20T07:05:37.175Z,69.11
2019-03-20T07:06:37.142Z,68.90
2019-03-20T07:07:44.215Z,68.70
2019-03-20T07:08:38.114Z,68.70
2019-03-20T07:09:37.109Z,69.01
2019-03-20T07:10:37.109Z,68.15
2019-03-20T07:11:37.082Z,67.86
2019-03-20T07:12:37.070Z,67.83
2019-03-20T07:13:37.083Z,67.42
2019-03-20T07:14:37.046Z,67.52
2019-03-20T07:15:37.068Z,67.80
2019-03-20T07:16:37.021Z,67.63
2019-03-20T07:17:37.012Z,67.52
2019-03-20T07:18:37.039Z,66.46
2019-03-20T07:19:37.005Z,65.63
2019-03-20T07:20:36.983Z,66.15
2019-03-20T07:21:36.988Z,65.63
2019-03-20T07:22:36.968Z,65.53
2019-03-20T07:23:36.944Z,64.98
2019-03-20T07:24:36.941Z,65.22
2019-03-20T07:25:36.943Z,64.46
2019-03-20T07:26:36.966Z,64.98
2019-03-20T07:27:36.912Z,63.95
2019-03-20T07:28:36.903Z,63.95
2019-03-20T07:29:36.910Z,63.74
2019-03-20T07:30:36.873Z,63.09
2019-03-20T07:31:36.872Z,63.19
2019-03-20T07:32:36.858Z,63.71
2019-03-20T07:33:36.853Z,63.09
2019-03-20T07:34:36.835Z,63.74
2019-03-20T07:35:36.823Z,63.84
2019-03-20T07:36:36.820Z,63.50
2019-03-20T07:37:36.801Z,63.29
2019-03-20T07:38:36.783Z,63.40
2019-03-20T07:39:36.805Z,62.88
2019-03-20T07:40:36.769Z,62.26
2019-03-20T07:41:36.779Z,62.13
2019-03-20T07:42:36.735Z,62.88
2019-03-20T07:43:36.736Z,62.54
2019-03-20T07:44:36.725Z,62.13
2019-03-20T07:45:36.698Z,62.13
2019-03-20T07:46:36.735Z,62.44
2019-03-20T07:47:36.695Z,62.54
2019-03-20T07:48:36.667Z,62.44
2019-03-20T07:49:36.681Z,62.75
2019-03-20T07:50:36.652Z,62.95
2019-03-20T07:51:36.652Z,62.65
2019-03-20T07:52:36.627Z,62.62
2019-03-20T07:53:36.633Z,62.62
2019-03-20T07:54:36.600Z,62.72
2019-03-20T07:55:36.600Z,62.62
2019-03-20T07:56:36.599Z,62.51
2019-03-20T07:57:36.571Z,62.41
2019-03-20T07:58:36.588Z,62.51
2019-03-20T07:59:36.570Z,62.10
2019-03-20T08:00:36.546Z,61.99
2019-03-20T08:01:36.550Z,62.07
2019-03-20T08:02:36.518Z,62.48
2019-03-20T08:03:36.508Z,62.17
2019-03-20T08:04:36.505Z,62.07
2019-03-20T08:05:36.488Z,62.27
2019-03-20T08:06:36.499Z,61.66
2019-03-20T08:07:36.483Z,61.97
2019-03-20T08:08:36.457Z,61.35
2019-03-20T08:09:36.490Z,61.22
2019-03-20T08:10:36.434Z,61.55
2019-03-20T08:11:36.436Z,61.55
2019-03-20T08:12:36.426Z,62.04
2019-03-20T08:13:36.410Z,61.22
2019-03-20T08:14:36.396Z,61.32
2019-03-20T08:15:36.376Z,62.04
2019-03-20T08:16:36.357Z,61.42
2019-03-20T08:17:36.367Z,61.11
2019-03-20T08:18:36.335Z,61.73
2019-03-20T08:19:36.347Z,61.22
2019-03-20T08:20:36.320Z,60.77
2019-03-20T08:21:36.303Z,61.19
2019-03-20T08:22:36.308Z,60.67
2019-03-20T08:23:36.296Z,60.98
2019-03-20T08:24:36.299Z,61.19
2019-03-20T08:25:36.275Z,61.29
2019-03-20T08:26:36.253Z,60.98
2019-03-20T08:27:36.259Z,61.19
2019-03-20T08:28:36.232Z,60.33
2019-03-20T08:29:36.249Z,60.36
2019-03-20T08:30:36.210Z,60.54
2019-03-20T08:31:36.215Z,60.57
2019-03-20T08:32:36.198Z,60.26
2019-03-20T08:33:36.180Z,60.64
2019-03-20T08:34:36.172Z,60.95
2019-03-20T08:35:36.149Z,60.02
2019-03-20T08:36:36.165Z,60.44
2019-03-20T08:37:36.157Z,60.85
2019-03-20T08:38:36.133Z,60.13
2019-03-20T08:39:36.109Z,59.72
2019-03-20T08:40:36.099Z,59.72
2019-03-20T08:41:36.086Z,59.61
2019-03-20T08:42:36.090Z,59.92
2019-03-20T08:43:36.073Z,59.58
2019-03-20T08:44:36.064Z,59.07
2019-03-20T08:45:36.101Z,58.86
2019-03-20T08:46:36.025Z,58.86
2019-03-20T08:47:36.044Z,58.97
2019-03-20T08:48:36.004Z,58.86
2019-03-20T08:49:35.988Z,59.28
2019-03-20T08:50:35.981Z,59.25
2019-03-20T08:51:35.978Z,58.04
2019-03-20T08:52:35.990Z,58.42
2019-03-20T08:53:35.954Z,58.42
2019-03-20T08:54:35.948Z,58.42
2019-03-20T08:55:35.934Z,58.63
2019-03-20T08:56:36.018Z,58.32
2019-03-20T08:57:35.920Z,58.22
2019-03-20T08:58:35.894Z,58.42
2019-03-20T08:59:35.898Z,57.60
2019-03-20T09:00:35.870Z,57.68
2019-03-20T09:01:35.857Z,57.39
2019-03-20T09:02:35.876Z,58.22
2019-03-20T09:03:35.850Z,57.68
2019-03-20T09:04:35.906Z,57.06
2019-03-20T09:05:35.818Z,57.29
2019-03-20T09:06:35.822Z,57.37
2019-03-20T09:07:46.700Z,57.37
2019-03-20T09:08:36.826Z,57.26
2019-03-20T09:09:35.782Z,57.16
2019-03-20T09:10:35.772Z,57.26
2019-03-20T09:11:35.763Z,57.37
2019-03-20T09:12:35.775Z,57.47
2019-03-20T09:13:35.733Z,57.88
2019-03-20T09:14:35.730Z,57.57
2019-03-20T09:15:35.728Z,57.57
2019-03-20T09:16:35.696Z,57.57
2019-03-20T09:17:35.684Z,57.14
2019-03-20T09:18:35.687Z,57.34
2019-03-20T09:19:35.685Z,57.24
2019-03-20T09:20:35.655Z,57.24
2019-03-20T09:21:35.645Z,57.54
2019-03-20T09:22:35.628Z,55.87
2019-03-20T09:23:35.639Z,56.18
2019-03-20T09:24:35.618Z,56.38
2019-03-20T09:25:35.592Z,56.08
2019-03-20T09:26:35.602Z,56.29
2019-03-20T09:27:35.571Z,56.18
2019-03-20T09:28:35.593Z,56.18
2019-03-20T09:29:36.444Z,55.98
2019-03-20T09:30:35.555Z,56.08
2019-03-20T09:31:35.534Z,56.18
2019-03-20T09:32:35.550Z,56.18
2019-03-20T09:33:35.555Z,55.98
2019-03-20T09:34:35.517Z,55.95
2019-03-20T09:35:35.499Z,55.85
2019-03-20T09:36:43.178Z,56.05
2019-03-20T09:37:36.459Z,56.05
2019-03-20T09:38:43.320Z,55.54
2019-03-20T09:39:36.444Z,54.51
2019-03-20T09:40:35.438Z,54.30
2019-03-20T09:41:35.440Z,55.64
2019-03-20T09:42:35.428Z,55.23
2019-03-20T09:43:35.425Z,55.02
2019-03-20T09:44:35.409Z,54.38
2019-03-20T09:45:35.370Z,54.49
2019-03-20T09:46:35.361Z,55.21
2019-03-20T09:47:35.350Z,55.21
2019-03-20T09:48:35.368Z,54.90
2019-03-20T09:49:35.344Z,54.79
2019-03-20T09:50:35.328Z,54.69
2019-03-20T09:51:35.313Z,54.69
2019-03-20T09:52:36.214Z,54.79
2019-03-20T09:53:35.311Z,54.79
2019-03-20T09:54:35.353Z,54.66
2019-03-20T09:55:35.289Z,54.69
2019-03-20T09:56:35.284Z,54.49
2019-03-20T09:57:35.243Z,54.36
2019-03-20T09:58:35.244Z,54.05
2019-03-20T09:59:35.247Z,54.97
2019-03-20T10:00:35.233Z,54.56
2019-03-20T10:01:35.214Z,54.87
2019-03-20T10:02:35.194Z,54.66
2019-03-20T10:03:35.186Z,54.77
2019-03-20T10:04:35.175Z,54.97
2019-03-20T10:05:35.154Z,54.87
2019-03-20T10:06:35.146Z,54.33
2019-03-20T10:07:35.143Z,55.08
2019-03-20T10:08:35.145Z,55.05
2019-03-20T10:09:35.112Z,54.74
2019-03-20T10:10:35.097Z,54.85
2019-03-20T10:11:35.108Z,54.77
2019-03-20T10:12:35.083Z,54.23
2019-03-20T10:13:35.074Z,54.43
2019-03-20T10:14:35.062Z,54.43
2019-03-20T10:15:35.053Z,55.15
2019-03-20T10:16:35.049Z,54.64
2019-03-20T10:17:35.027Z,55.05
2019-03-20T10:18:35.021Z,54.72
2019-03-20T10:19:35.020Z,54.51
2019-03-20T10:20:34.998Z,55.02
2019-03-20T10:21:35.007Z,54.72
2019-03-20T10:22:34.976Z,54.51
2019-03-20T10:23:34.975Z,54.51
2019-03-20T10:24:34.944Z,54.61
2019-03-20T10:25:44.180Z,54.72
2019-03-20T10:26:35.918Z,54.51
2019-03-20T10:27:34.914Z,54.72
2019-03-20T10:28:34.912Z,54.82
2019-03-20T10:29:34.888Z,54.51
2019-03-20T10:30:34.884Z,54.82
2019-03-20T10:31:34.870Z,54.51
2019-03-20T10:32:34.868Z,54.92
2019-03-20T10:33:34.899Z,54.72
2019-03-20T10:34:39.421Z,54.51
2019-03-20T10:35:35.819Z,54.69
2019-03-20T10:36:34.832Z,53.97
2019-03-20T10:37:34.826Z,54.08
2019-03-20T10:38:34.819Z,54.79
2019-03-20T10:39:34.818Z,55.21
2019-03-20T10:40:34.770Z,54.69
2019-03-20T10:41:34.759Z,54.59
2019-03-20T10:42:34.770Z,54.79
2019-03-20T10:43:34.754Z,54.59
2019-03-20T10:44:34.739Z,54.49
2019-03-20T10:45:34.721Z,54.69
2019-03-20T10:46:34.706Z,54.49
2019-03-20T10:47:34.703Z,54.69
2019-03-20T10:48:34.729Z,54.69
2019-03-20T10:49:34.721Z,54.97
2019-03-20T10:50:34.683Z,54.05
2019-03-20T10:51:34.661Z,54.13
2019-03-20T10:52:34.633Z,53.85
2019-03-20T10:53:34.657Z,53.44
2019-03-20T10:54:34.619Z,53.54
2019-03-20T10:55:34.603Z,53.23
2019-03-20T10:56:34.584Z,53.64
2019-03-20T10:57:34.597Z,54.15
2019-03-20T10:58:34.577Z,53.85
2019-03-20T10:59:34.554Z,54.77
2019-03-20T11:00:34.542Z,53.54
2019-03-20T11:01:42.622Z,54.13
2019-03-20T11:02:35.522Z,53.20
2019-03-20T11:03:34.523Z,53.00
2019-03-20T11:04:34.548Z,53.51
2019-03-20T11:05:34.495Z,52.90
2019-03-20T11:06:34.490Z,54.13
2019-03-20T11:07:34.462Z,53.08
2019-03-20T11:08:34.487Z,53.59
2019-03-20T11:09:34.478Z,53.80
2019-03-20T11:10:34.445Z,53.08
2019-03-20T11:11:34.423Z,53.08
2019-03-20T11:12:34.414Z,52.64
2019-03-20T11:13:34.418Z,52.23
2019-03-20T11:14:34.391Z,53.69
2019-03-20T11:15:34.421Z,53.16
2019-03-20T11:16:34.392Z,53.67
2019-03-20T11:17:34.350Z,52.75
2019-03-20T11:18:34.361Z,52.64
2019-03-20T11:19:34.351Z,52.13
2019-03-20T11:20:34.319Z,52.44
2019-03-20T11:21:34.316Z,52.95
2019-03-20T11:22:34.290Z,52.85
2019-03-20T11:23:34.316Z,52.21
2019-03-20T11:24:34.286Z,52.42
2019-03-20T11:25:34.275Z,52.42
2019-03-20T11:26:34.315Z,52.00
2019-03-20T11:27:34.262Z,52.62
2019-03-20T11:28:34.257Z,52.11
2019-03-20T11:29:34.236Z,52.31
2019-03-20T11:30:34.242Z,52.11
2019-03-20T11:31:34.203Z,52.83
2019-03-20T11:32:34.201Z,52.39
2019-03-20T11:33:34.210Z,52.29
2019-03-20T11:34:34.210Z,51.90
2019-03-20T11:35:34.164Z,51.70
2019-03-20T11:36:34.188Z,51.98
2019-03-20T11:37:34.139Z,52.11
2019-03-20T11:38:34.151Z,52.29
2019-03-20T11:39:34.173Z,51.88
2019-03-20T11:40:34.097Z,52.59
2019-03-20T11:41:34.081Z,52.29
2019-03-20T11:42:34.073Z,52.08
2019-03-20T11:43:34.196Z,51.78
2019-03-20T11:44:34.099Z,51.78
2019-03-20T11:45:34.046Z,52.08
2019-03-20T11:46:34.029Z,53.19
2019-03-20T11:47:34.030Z,51.75
2019-03-20T11:48:34.022Z,51.54
2019-03-20T11:49:34.034Z,51.75
2019-03-20T11:50:33.988Z,51.86
2019-03-20T11:51:33.975Z,51.65
2019-03-20T11:52:33.963Z,51.65
2019-03-20T11:53:33.968Z,51.86
2019-03-20T11:54:33.973Z,51.54
2019-03-20T11:55:33.950Z,51.86
2019-03-20T11:56:33.922Z,51.75
2019-03-20T11:57:33.914Z,51.95
2019-03-20T11:58:33.900Z,51.75
2019-03-20T11:59:33.918Z,51.95
2019-03-20T12:00:33.889Z,51.65
2019-03-20T12:01:33.891Z,52.26
2019-03-20T12:02:33.852Z,52.26
2019-03-20T12:03:33.843Z,51.54
2019-03-20T12:04:33.853Z,51.65
2019-03-20T12:05:33.826Z,51.54
2019-03-20T12:06:33.815Z,52.06
2019-03-20T12:07:33.791Z,51.95
2019-03-20T12:08:33.836Z,51.65
2019-03-20T12:09:41.100Z,52.06
2019-03-20T12:10:34.764Z,52.26
2019-03-20T12:11:45.182Z,51.95
2019-03-20T12:12:34.747Z,52.06
2019-03-20T12:13:33.726Z,52.26
2019-03-20T12:14:33.747Z,51.86
2019-03-20T12:15:33.758Z,51.65
2019-03-20T12:16:33.712Z,51.86
2019-03-20T12:17:33.699Z,52.37
2019-03-20T12:18:33.683Z,51.65
2019-03-20T12:19:44.490Z,51.75
2019-03-20T12:20:34.655Z,51.86
2019-03-20T12:21:33.653Z,51.54
2019-03-20T12:22:33.640Z,51.75
2019-03-20T12:23:33.895Z,51.42
2019-03-20T12:24:33.633Z,51.14
2019-03-20T12:25:33.599Z,51.01
2019-03-20T12:26:33.583Z,51.04
2019-03-20T12:27:33.581Z,50.91
2019-03-20T12:28:33.567Z,51.32
2019-03-20T12:29:33.576Z,51.53
2019-03-20T12:30:33.538Z,50.30
2019-03-20T12:31:33.533Z,50.91
2019-03-20T12:32:33.538Z,50.30
2019-03-20T12:33:33.512Z,50.37
2019-03-20T12:34:33.511Z,50.27
2019-03-20T12:35:33.546Z,50.37
2019-03-20T12:36:33.602Z,50.30
2019-03-20T12:37:33.471Z,51.01
2019-03-20T12:38:33.455Z,50.30
2019-03-20T12:39:33.502Z,51.50
2019-03-20T12:40:33.436Z,50.68
2019-03-20T12:41:33.422Z,50.37
2019-03-20T12:42:33.411Z,50.37
2019-03-20T12:43:33.393Z,50.40
2019-03-20T12:44:33.401Z,50.27
2019-03-20T12:45:33.428Z,49.96
2019-03-20T12:46:41.416Z,50.68
2019-03-20T12:47:34.362Z,49.79
2019-03-20T12:48:33.362Z,50.27
2019-03-20T12:49:33.342Z,50.07
2019-03-20T12:50:33.322Z,50.27
2019-03-20T12:51:33.309Z,50.07
2019-03-20T12:52:33.296Z,51.09